createdAt,value
2022-12-20T00:00:58.695Z,56.70
2022-12-20T00:01:58.810Z,54.90
2022-12-20T00:02:58.728Z,58.00
2022-12-20T00:03:58.733Z,56.00
2022-12-20T00:04:58.663Z,56.00
2022-12-20T00:05:58.657Z,54.10
2022-12-20T00:06:58.625Z,54.40
2022-12-20T00:07:58.636Z,57.20
2022-12-20T00:08:58.598Z,54.30
2022-12-20T00:09:58.641Z,58.40
2022-12-20T00:10:58.571Z,57.10
2022-12-20T00:11:58.582Z,58.00
2022-12-20T00:12:58.550Z,57.70
2022-12-20T00:13:58.579Z,56.00
2022-12-20T00:14:58.561Z,57.10
2022-12-20T00:15:58.530Z,53.60
2022-12-20T00:16:58.484Z,54.60
2022-12-20T00:17:58.572Z,57.70
2022-12-20T00:18:58.493Z,59.60
2022-12-20T00:19:58.486Z,57.60
2022-12-20T00:20:58.445Z,60.20
2022-12-20T00:21:58.544Z,60.60
2022-12-20T00:22:58.412Z,58.10
2022-12-20T00:23:58.447Z,61.00
2022-12-20T00:24:58.402Z,60.30
2022-12-20T00:25:58.397Z,58.70
2022-12-20T00:26:58.365Z,60.10
2022-12-20T00:27:58.403Z,60.40
2022-12-20T00:28:58.345Z,59.60
2022-12-20T00:29:58.369Z,58.70
2022-12-20T00:30:58.985Z,61.20
2022-12-20T00:31:58.466Z,62.60
2022-12-20T00:32:58.285Z,63.10
2022-12-20T00:33:58.293Z,56.00
2022-12-20T00:34:58.262Z,54.50
2022-12-20T00:35:58.283Z,57.40
2022-12-20T00:36:58.296Z,56.90
2022-12-20T00:37:58.237Z,57.20
2022-12-20T00:38:58.228Z,58.70
2022-12-20T00:39:58.232Z,56.70
2022-12-20T00:40:58.181Z,56.90
2022-12-20T00:41:58.247Z,58.80
2022-12-20T00:42:58.154Z,58.50
2022-12-20T00:43:58.167Z,59.10
2022-12-20T00:44:58.139Z,58.30
2022-12-20T00:45:58.148Z,59.30
2022-12-20T00:46:58.240Z,57.40
2022-12-20T00:47:58.137Z,59.20
2022-12-20T00:48:58.076Z,57.20
2022-12-20T00:49:58.096Z,60.60
2022-12-20T00:50:58.054Z,59.40
2022-12-20T00:51:58.117Z,57.10
2022-12-20T00:52:58.052Z,56.70
2022-12-20T00:53:58.064Z,56.50
2022-12-20T00:54:58.003Z,56.40
2022-12-20T00:55:58.035Z,58.50
2022-12-20T00:56:57.981Z,55.40
2022-12-20T00:57:58.003Z,56.40
2022-12-20T00:58:57.946Z,54.60
2022-12-20T00:59:57.964Z,53.50
2022-12-20T01:00:57.982Z,53.50
2022-12-20T01:01:58.160Z,54.90
2022-12-20T01:02:58.107Z,55.40
2022-12-20T01:03:57.921Z,57.40
2022-12-20T01:04:57.881Z,53.90
2022-12-20T01:05:57.906Z,54.30
2022-12-20T01:06:57.877Z,55.60
2022-12-20T01:07:57.865Z,56.60
2022-12-20T01:08:57.835Z,54.20
2022-12-20T01:09:57.868Z,58.30
2022-12-20T01:10:57.805Z,57.50
2022-12-20T01:11:57.839Z,58.20
2022-12-20T01:12:57.781Z,58.40
2022-12-20T01:13:57.781Z,59.90
2022-12-20T01:14:57.774Z,60.00
2022-12-20T01:15:57.830Z,61.80
2022-12-20T01:16:57.817Z,61.30
2022-12-20T01:17:57.743Z,60.80
2022-12-20T01:18:57.711Z,52.30
2022-12-20T01:19:57.728Z,58.30
2022-12-20T01:20:57.664Z,53.90
2022-12-20T01:21:57.690Z,55.80
2022-12-20T01:22:57.660Z,55.20
2022-12-20T01:23:57.695Z,61.00
2022-12-20T01:24:57.651Z,62.10
2022-12-20T01:25:57.665Z,65.20
2022-12-20T01:26:57.604Z,61.10
2022-12-20T01:27:57.607Z,59.20
2022-12-20T01:28:57.562Z,55.10
2022-12-20T01:29:57.602Z,56.10
2022-12-20T01:30:57.541Z,56.70
2022-12-20T01:31:57.628Z,55.30
2022-12-20T01:32:57.516Z,56.40
2022-12-20T01:33:57.520Z,53.00
2022-12-20T01:34:57.512Z,54.20
2022-12-20T01:35:57.505Z,51.30
2022-12-20T01:36:57.472Z,51.40
2022-12-20T01:37:57.487Z,52.80
2022-12-20T01:38:57.465Z,51.80
2022-12-20T01:39:57.441Z,53.20
2022-12-20T01:40:57.446Z,49.90
2022-12-20T01:41:57.448Z,53.10
2022-12-20T01:42:57.408Z,50.30
2022-12-20T01:43:57.406Z,51.90
2022-12-20T01:44:57.372Z,49.60
2022-12-20T01:45:57.491Z,52.60
2022-12-20T01:46:57.374Z,52.60
2022-12-20T01:47:57.330Z,51.30
2022-12-20T01:48:57.336Z,53.80
2022-12-20T01:49:57.304Z,51.70
2022-12-20T01:50:57.308Z,47.30
2022-12-20T01:51:57.325Z,47.30
2022-12-20T01:52:57.269Z,52.60
2022-12-20T01:53:57.245Z,50.00
2022-12-20T01:54:57.253Z,49.50
2022-12-20T01:55:57.230Z,50.00
2022-12-20T01:56:57.245Z,52.40
2022-12-20T01:57:57.199Z,52.10
2022-12-20T01:58:57.216Z,52.10
2022-12-20T01:59:57.181Z,52.10
2022-12-20T02:00:57.258Z,55.40
2022-12-20T02:01:57.466Z,51.20
2022-12-20T02:02:57.328Z,48.90
2022-12-20T02:03:57.116Z,49.30
2022-12-20T02:04:57.128Z,52.70
2022-12-20T02:05:57.088Z,49.00
2022-12-20T02:06:57.093Z,48.80
2022-12-20T02:07:57.088Z,48.60
2022-12-20T02:08:57.107Z,46.00
2022-12-20T02:09:57.053Z,45.00
2022-12-20T02:10:57.055Z,47.90
2022-12-20T02:11:57.011Z,48.50
2022-12-20T02:12:57.047Z,51.00
2022-12-20T02:13:56.994Z,50.10
2022-12-20T02:14:57.005Z,48.50
2022-12-20T02:15:56.968Z,49.30
2022-12-20T02:16:57.021Z,46.10
2022-12-20T02:17:56.983Z,47.80
2022-12-20T02:18:56.967Z,47.60
2022-12-20T02:19:56.918Z,48.20
2022-12-20T02:20:56.933Z,50.20
2022-12-20T02:21:56.889Z,51.70
2022-12-20T02:22:56.919Z,50.60
2022-12-20T02:23:56.884Z,52.10
2022-12-20T02:24:56.872Z,51.00
2022-12-20T02:25:56.833Z,48.10
2022-12-20T02:26:56.851Z,47.10
2022-12-20T02:27:56.848Z,50.30
2022-12-20T02:28:56.836Z,49.90
2022-12-20T02:29:56.786Z,46.50
2022-12-20T02:30:56.798Z,48.30
2022-12-20T02:31:56.879Z,52.60
2022-12-20T02:32:56.768Z,50.70
2022-12-20T02:33:56.744Z,51.20
2022-12-20T02:34:56.753Z,51.90
2022-12-20T02:35:56.713Z,50.90
2022-12-20T02:36:56.739Z,49.50
2022-12-20T02:37:56.683Z,49.50
2022-12-20T02:38:56.691Z,43.30
2022-12-20T02:39:56.659Z,45.70
2022-12-20T02:40:56.689Z,42.30
2022-12-20T02:41:56.635Z,41.20
2022-12-20T02:42:56.641Z,46.30
2022-12-20T02:43:56.591Z,43.40
2022-12-20T02:44:56.640Z,46.90
2022-12-20T02:45:56.639Z,44.10
2022-12-20T02:46:56.589Z,45.90
2022-12-20T02:47:56.548Z,44.90
2022-12-20T02:48:56.573Z,44.30
2022-12-20T02:49:56.553Z,47.90
2022-12-20T02:50:56.537Z,42.50
2022-12-20T02:51:56.493Z,41.60
2022-12-20T02:52:56.515Z,42.40
2022-12-20T02:53:56.480Z,43.00
2022-12-20T02:54:56.501Z,41.80
2022-12-20T02:55:56.452Z,41.60
2022-12-20T02:56:56.485Z,41.20
2022-12-20T02:58:00.319Z,43.20
2022-12-20T02:58:56.491Z,39.90
2022-12-20T02:59:56.410Z,38.20
2022-12-20T03:00:56.438Z,40.30
2022-12-20T03:01:56.562Z,39.40
2022-12-20T03:02:56.608Z,38.70
2022-12-20T03:03:56.339Z,40.00
2022-12-20T03:04:56.384Z,41.80
2022-12-20T03:05:56.323Z,37.40
2022-12-20T03:06:56.332Z,37.60
2022-12-20T03:07:56.287Z,38.80
2022-12-20T03:08:56.309Z,39.60
2022-12-20T03:09:56.299Z,40.80
2022-12-20T03:10:56.284Z,39.70
2022-12-20T03:11:56.248Z,39.30
2022-12-20T03:12:56.250Z,40.20
2022-12-20T03:13:56.227Z,39.60
2022-12-20T03:14:56.264Z,40.00
2022-12-20T03:15:56.206Z,36.50
2022-12-20T03:16:56.253Z,40.20
2022-12-20T03:17:56.167Z,37.20
2022-12-20T03:18:56.173Z,37.10
2022-12-20T03:19:56.157Z,38.30
2022-12-20T03:20:56.150Z,33.80
2022-12-20T03:21:56.105Z,36.60
2022-12-20T03:22:56.126Z,39.00
2022-12-20T03:23:56.095Z,33.80
2022-12-20T03:24:56.144Z,35.20
2022-12-20T03:25:56.057Z,37.80
2022-12-20T03:26:56.115Z,39.90
2022-12-20T03:27:56.047Z,39.50
2022-12-20T03:28:56.051Z,38.40
2022-12-20T03:29:55.996Z,36.30
2022-12-20T03:30:56.077Z,36.30
2022-12-20T03:31:55.998Z,35.60
2022-12-20T03:32:56.021Z,39.70
2022-12-20T03:33:55.966Z,36.70
2022-12-20T03:34:55.967Z,34.30
2022-12-20T03:35:55.945Z,35.70
2022-12-20T03:36:55.969Z,34.60
2022-12-20T03:37:55.924Z,38.40
2022-12-20T03:38:55.962Z,40.00
2022-12-20T03:39:55.874Z,35.50
2022-12-20T03:40:55.879Z,36.30
2022-12-20T03:41:55.850Z,36.30
2022-12-20T03:42:55.867Z,38.10
2022-12-20T03:43:55.828Z,41.00
2022-12-20T03:44:55.957Z,41.10
2022-12-20T03:45:55.827Z,41.30
2022-12-20T03:46:55.827Z,37.50
2022-12-20T03:47:55.777Z,35.80
2022-12-20T03:48:55.779Z,36.80
2022-12-20T03:49:55.778Z,35.90
2022-12-20T03:50:55.760Z,42.70
2022-12-20T03:51:55.730Z,41.50
2022-12-20T03:52:55.732Z,38.80
2022-12-20T03:53:55.736Z,39.10
2022-12-20T03:54:55.738Z,40.80
2022-12-20T03:55:55.683Z,38.50
2022-12-20T03:56:55.690Z,39.30
2022-12-20T03:57:55.652Z,37.90
2022-12-20T03:58:55.667Z,38.00
2022-12-20T03:59:55.650Z,36.90
2022-12-20T04:00:55.640Z,39.10
2022-12-20T04:01:55.783Z,36.40
2022-12-20T04:02:55.817Z,37.00
2022-12-20T04:03:55.623Z,36.50
2022-12-20T04:04:55.598Z,33.90
2022-12-20T04:05:55.578Z,36.00
2022-12-20T04:06:55.605Z,37.00
2022-12-20T04:07:55.537Z,34.60
2022-12-20T04:08:55.529Z,37.30
2022-12-20T04:09:55.499Z,36.40
2022-12-20T04:10:55.539Z,34.40
2022-12-20T04:11:55.470Z,36.20
2022-12-20T04:12:55.482Z,33.50
2022-12-20T04:13:55.466Z,35.90
2022-12-20T04:14:55.503Z,39.10
2022-12-20T04:16:00.307Z,38.40
2022-12-20T04:16:55.456Z,37.70
2022-12-20T04:17:55.421Z,39.10
2022-12-20T04:18:55.408Z,37.80
2022-12-20T04:19:55.378Z,38.30
2022-12-20T04:20:55.482Z,35.20
2022-12-20T04:22:00.769Z,36.10
2022-12-20T04:22:55.353Z,38.10
2022-12-20T04:23:55.313Z,39.50
2022-12-20T04:24:55.355Z,41.60
2022-12-20T04:25:55.282Z,42.50
2022-12-20T04:26:55.340Z,40.10
2022-12-20T04:27:55.260Z,44.20
2022-12-20T04:28:55.285Z,43.60
2022-12-20T04:29:55.246Z,42.20
2022-12-20T04:30:55.351Z,36.10
2022-12-20T04:31:55.341Z,38.60
2022-12-20T04:32:55.236Z,38.70
2022-12-20T04:33:55.185Z,38.80
2022-12-20T04:34:55.219Z,36.90
2022-12-20T04:35:55.164Z,34.00
2022-12-20T04:36:55.180Z,36.90
2022-12-20T04:37:55.163Z,39.10
2022-12-20T04:38:55.143Z,38.20
2022-12-20T04:39:55.133Z,38.70
2022-12-20T04:40:55.123Z,38.60
2022-12-20T04:41:55.086Z,40.80
2022-12-20T04:42:55.138Z,36.90
2022-12-20T04:43:55.067Z,43.60
2022-12-20T04:44:55.074Z,36.20
2022-12-20T04:45:55.033Z,38.90
2022-12-20T04:46:55.108Z,36.50
2022-12-20T04:47:55.025Z,39.00
2022-12-20T04:48:57.946Z,37.50
2022-12-20T04:49:55.027Z,36.80
2022-12-20T04:50:55.018Z,35.70
2022-12-20T04:51:54.969Z,40.60
2022-12-20T04:52:54.968Z,40.30
2022-12-20T04:53:54.991Z,43.20
2022-12-20T04:54:54.944Z,44.00
2022-12-20T04:55:54.908Z,43.80
2022-12-20T04:56:54.917Z,42.00
2022-12-20T04:57:54.884Z,42.00
2022-12-20T04:58:54.905Z,44.00
2022-12-20T04:59:54.853Z,51.40
2022-12-20T05:00:54.859Z,52.70
2022-12-20T05:01:54.913Z,61.30
2022-12-20T05:02:55.059Z,66.40
2022-12-20T05:03:54.960Z,61.30
2022-12-20T05:04:54.835Z,54.00
2022-12-20T05:05:54.784Z,60.70
2022-12-20T05:06:54.801Z,55.10
2022-12-20T05:07:54.781Z,55.40
2022-12-20T05:08:54.781Z,47.90
2022-12-20T05:09:54.755Z,48.20
2022-12-20T05:10:54.735Z,52.10
2022-12-20T05:11:54.694Z,44.90
2022-12-20T05:12:54.718Z,44.60
2022-12-20T05:13:54.668Z,46.90
2022-12-20T05:14:54.742Z,42.70
2022-12-20T05:15:54.695Z,43.80
2022-12-20T05:16:54.678Z,43.00
2022-12-20T05:17:54.625Z,39.10
2022-12-20T05:18:54.648Z,43.10
2022-12-20T05:19:54.630Z,41.00
2022-12-20T05:20:54.610Z,40.10
2022-12-20T05:21:54.591Z,40.80
2022-12-20T05:22:54.577Z,38.50
2022-12-20T05:23:54.565Z,39.10
2022-12-20T05:24:54.552Z,44.40
2022-12-20T05:25:54.524Z,44.60
2022-12-20T05:26:54.569Z,41.60
2022-12-20T05:27:54.512Z,42.20
2022-12-20T05:28:54.521Z,41.70
2022-12-20T05:29:54.465Z,43.20
2022-12-20T05:30:54.601Z,40.10
2022-12-20T05:31:54.570Z,42.10
2022-12-20T05:32:54.454Z,41.30
2022-12-20T05:33:54.433Z,43.20
2022-12-20T05:34:54.486Z,43.50
2022-12-20T05:35:54.594Z,43.70
2022-12-20T05:36:54.453Z,46.50
2022-12-20T05:37:54.409Z,43.10
2022-12-20T05:38:58.183Z,42.50
2022-12-20T05:39:54.418Z,43.20
2022-12-20T05:40:54.378Z,38.40
2022-12-20T05:41:54.327Z,41.80
2022-12-20T05:42:54.356Z,40.00
2022-12-20T05:43:54.309Z,38.50
2022-12-20T05:44:54.348Z,41.30
2022-12-20T05:45:54.289Z,40.30
2022-12-20T05:46:54.339Z,39.90
2022-12-20T05:47:54.261Z,40.10
2022-12-20T05:48:54.269Z,39.30
2022-12-20T05:49:54.223Z,38.40
2022-12-20T05:50:54.226Z,37.60
2022-12-20T05:51:54.193Z,36.70
2022-12-20T05:52:54.225Z,40.10
2022-12-20T05:53:54.193Z,41.90
2022-12-20T05:54:54.244Z,41.00
2022-12-20T05:55:54.323Z,38.30
2022-12-20T05:56:54.137Z,36.30
2022-12-20T05:57:54.099Z,38.10
2022-12-20T05:58:54.130Z,39.80
2022-12-20T05:59:54.657Z,39.20
2022-12-20T06:00:54.087Z,38.30
2022-12-20T06:01:54.196Z,37.60
2022-12-20T06:02:54.281Z,41.40
2022-12-20T06:03:54.113Z,41.50
2022-12-20T06:04:54.028Z,43.50
2022-12-20T06:05:54.016Z,47.70
2022-12-20T06:06:54.052Z,41.90
2022-12-20T06:07:54.022Z,43.40
2022-12-20T06:08:53.975Z,39.40
2022-12-20T06:09:53.984Z,39.20
2022-12-20T06:10:53.986Z,42.30
2022-12-20T06:11:53.959Z,40.40
2022-12-20T06:12:53.921Z,40.40
2022-12-20T06:13:53.937Z,40.40
2022-12-20T06:14:53.913Z,40.10
2022-12-20T06:15:54.071Z,37.10
2022-12-20T06:16:53.968Z,39.40
2022-12-20T06:17:53.916Z,39.90
2022-12-20T06:18:53.844Z,39.80
2022-12-20T06:19:53.855Z,40.40
2022-12-20T06:20:53.807Z,39.30
2022-12-20T06:21:53.854Z,38.50
2022-12-20T06:22:53.782Z,37.80
2022-12-20T06:23:53.807Z,38.70
2022-12-20T06:24:53.802Z,39.30
2022-12-20T06:25:53.787Z,36.40
2022-12-20T06:26:53.784Z,40.00
2022-12-20T06:27:53.789Z,38.90
2022-12-20T06:28:53.715Z,38.20
2022-12-20T06:29:53.728Z,38.70
2022-12-20T06:30:53.697Z,38.10
2022-12-20T06:31:53.759Z,39.40
2022-12-20T06:32:53.665Z,37.30
2022-12-20T06:33:53.668Z,39.20
2022-12-20T06:34:53.626Z,38.20
2022-12-20T06:35:53.633Z,35.80
2022-12-20T06:36:53.607Z,38.30
2022-12-20T06:37:53.635Z,33.20
2022-12-20T06:38:53.588Z,34.50
2022-12-20T06:39:53.591Z,34.90
2022-12-20T06:40:53.566Z,35.20
2022-12-20T06:41:53.566Z,35.10
2022-12-20T06:42:53.535Z,34.80
2022-12-20T06:43:53.596Z,35.80
2022-12-20T06:44:53.512Z,35.30
2022-12-20T06:45:53.521Z,34.00
2022-12-20T06:46:53.474Z,34.50
2022-12-20T06:47:53.510Z,34.00
2022-12-20T06:48:53.473Z,35.10
2022-12-20T06:49:53.479Z,33.00
2022-12-20T06:50:56.135Z,32.70
2022-12-20T06:51:53.445Z,36.10
2022-12-20T06:52:53.413Z,34.00
2022-12-20T06:53:53.417Z,34.30
2022-12-20T06:54:53.397Z,35.50
2022-12-20T06:55:53.496Z,33.50
2022-12-20T06:56:53.392Z,31.10
2022-12-20T06:57:53.434Z,34.20
2022-12-20T06:58:53.315Z,33.70
2022-12-20T06:59:53.401Z,30.70
2022-12-20T07:00:53.387Z,31.90
2022-12-20T07:01:53.440Z,31.70
2022-12-20T07:02:53.394Z,31.60
2022-12-20T07:03:53.367Z,31.70
2022-12-20T07:04:53.244Z,34.90
2022-12-20T07:05:53.261Z,36.30
2022-12-20T07:06:53.244Z,35.10
2022-12-20T07:07:53.230Z,32.80
2022-12-20T07:08:53.225Z,36.90
2022-12-20T07:09:53.216Z,35.70
2022-12-20T07:10:53.187Z,37.70
2022-12-20T07:11:53.209Z,38.70
2022-12-20T07:12:53.178Z,40.20
2022-12-20T07:13:53.170Z,38.50
2022-12-20T07:14:53.116Z,38.70
2022-12-20T07:15:53.127Z,39.50
2022-12-20T07:16:53.143Z,42.30
2022-12-20T07:17:53.145Z,44.90
2022-12-20T07:18:53.063Z,43.20
2022-12-20T07:19:53.101Z,42.80
2022-12-20T07:20:53.077Z,46.20
2022-12-20T07:21:53.093Z,43.60
2022-12-20T07:22:53.003Z,44.30
2022-12-20T07:23:53.031Z,45.50
2022-12-20T07:24:52.994Z,46.90
2022-12-20T07:25:53.025Z,45.20
2022-12-20T07:26:52.984Z,47.30
2022-12-20T07:27:52.969Z,44.30
2022-12-20T07:28:52.932Z,48.00
2022-12-20T07:29:52.946Z,45.70
2022-12-20T07:30:52.988Z,43.30
2022-12-20T07:31:52.996Z,40.40
2022-12-20T07:32:52.894Z,39.60
2022-12-20T07:33:52.916Z,38.00
2022-12-20T07:34:52.870Z,37.20
2022-12-20T07:35:54.908Z,38.40
2022-12-20T07:36:52.863Z,38.70
2022-12-20T07:37:52.887Z,36.10
2022-12-20T07:38:52.815Z,38.00
2022-12-20T07:39:52.883Z,36.40
2022-12-20T07:40:52.787Z,33.60
2022-12-20T07:41:52.805Z,35.80
2022-12-20T07:42:52.764Z,34.30
2022-12-20T07:43:52.774Z,45.20
2022-12-20T07:44:52.772Z,49.20
2022-12-20T07:45:52.799Z,42.30
2022-12-20T07:46:52.727Z,41.50
2022-12-20T07:47:52.746Z,43.90
2022-12-20T07:48:52.727Z,39.50
2022-12-20T07:49:52.746Z,39.00
2022-12-20T07:50:52.691Z,39.60
2022-12-20T07:51:52.697Z,42.30
2022-12-20T07:52:52.632Z,40.10
2022-12-20T07:53:52.716Z,40.30
2022-12-20T07:54:52.641Z,40.80
2022-12-20T07:55:52.633Z,42.50
2022-12-20T07:56:52.641Z,41.50
2022-12-20T07:57:52.601Z,39.30
2022-12-20T07:58:52.547Z,40.20
2022-12-20T07:59:52.555Z,36.90
2022-12-20T08:00:52.585Z,38.30
2022-12-20T08:01:52.717Z,39.40
2022-12-20T08:02:52.742Z,42.30
2022-12-20T08:03:52.639Z,44.20
2022-12-20T08:04:52.545Z,46.10
2022-12-20T08:05:52.483Z,43.50
2022-12-20T08:06:52.480Z,48.90
2022-12-20T08:07:58.691Z,48.90
2022-12-20T08:08:52.430Z,43.40
2022-12-20T08:09:52.492Z,41.80
2022-12-20T08:10:52.464Z,44.20
2022-12-20T08:11:52.409Z,45.00
2022-12-20T08:12:52.379Z,56.80
2022-12-20T08:13:57.506Z,57.20
2022-12-20T08:14:52.412Z,51.00
2022-12-20T08:15:52.385Z,52.40
2022-12-20T08:16:52.383Z,50.80
2022-12-20T08:17:52.343Z,50.00
2022-12-20T08:18:52.295Z,51.30
2022-12-20T08:19:52.354Z,49.90
2022-12-20T08:20:52.284Z,49.90
2022-12-20T08:21:52.300Z,49.50
2022-12-20T08:22:52.266Z,46.70
2022-12-20T08:23:52.295Z,42.50
2022-12-20T08:24:52.260Z,41.50
2022-12-20T08:25:52.254Z,40.80
2022-12-20T08:26:52.228Z,48.10
2022-12-20T08:27:52.230Z,41.30
2022-12-20T08:28:52.165Z,48.60
2022-12-20T08:29:52.183Z,51.40
2022-12-20T08:30:52.298Z,54.80
2022-12-20T08:31:52.247Z,55.20
2022-12-20T08:32:52.124Z,49.10
2022-12-20T08:33:52.139Z,45.60
2022-12-20T08:34:52.095Z,50.50
2022-12-20T08:35:52.120Z,41.70
2022-12-20T08:36:52.086Z,37.10
2022-12-20T08:37:52.113Z,37.10
2022-12-20T08:38:52.038Z,35.90
2022-12-20T08:39:52.073Z,38.20
2022-12-20T08:40:52.039Z,37.20
2022-12-20T08:41:52.042Z,38.20
2022-12-20T08:42:52.020Z,40.10
2022-12-20T08:43:52.012Z,44.20
2022-12-20T08:44:51.976Z,43.20
2022-12-20T08:45:52.028Z,44.10
2022-12-20T08:46:51.937Z,44.00
2022-12-20T08:47:52.081Z,44.80
2022-12-20T08:48:51.908Z,46.90
2022-12-20T08:49:51.929Z,45.50
2022-12-20T08:50:51.993Z,43.70
2022-12-20T08:51:51.991Z,40.80
2022-12-20T08:52:51.862Z,42.70
2022-12-20T08:53:51.866Z,44.50
2022-12-20T08:54:51.879Z,41.80
2022-12-20T08:55:51.865Z,41.10
2022-12-20T08:56:51.810Z,44.10
2022-12-20T08:57:51.829Z,46.10
2022-12-20T08:58:51.782Z,47.60
2022-12-20T08:59:51.873Z,46.00
2022-12-20T09:00:51.764Z,41.70
2022-12-20T09:01:51.896Z,49.10
2022-12-20T09:02:52.085Z,42.40
2022-12-20T09:03:51.878Z,46.70
2022-12-20T09:04:51.731Z,50.00
2022-12-20T09:05:51.732Z,45.60
2022-12-20T09:06:51.671Z,50.40
2022-12-20T09:07:51.693Z,54.10
2022-12-20T09:08:51.680Z,54.80
2022-12-20T09:09:51.697Z,51.90
2022-12-20T09:10:51.644Z,53.90
2022-12-20T09:11:51.660Z,45.40
2022-12-20T09:12:51.647Z,47.60
2022-12-20T09:13:51.628Z,48.50
2022-12-20T09:14:51.575Z,51.10
2022-12-20T09:15:51.695Z,49.40
2022-12-20T09:16:51.593Z,49.80
2022-12-20T09:17:51.567Z,50.60
2022-12-20T09:18:51.532Z,49.90
2022-12-20T09:19:51.552Z,47.60
2022-12-20T09:20:51.504Z,48.50
2022-12-20T09:21:51.532Z,44.90
2022-12-20T09:22:51.479Z,45.80
2022-12-20T09:23:51.490Z,44.60
2022-12-20T09:24:51.460Z,43.90
2022-12-20T09:25:53.879Z,41.90
2022-12-20T09:26:52.286Z,43.50
2022-12-20T09:27:51.444Z,46.80
2022-12-20T09:28:51.389Z,46.00
2022-12-20T09:29:51.422Z,45.30
2022-12-20T09:30:51.563Z,44.60
2022-12-20T09:31:51.388Z,44.90
2022-12-20T09:32:51.373Z,44.90
2022-12-20T09:33:51.342Z,44.20
2022-12-20T09:34:51.328Z,43.20
2022-12-20T09:35:51.334Z,41.10
2022-12-20T09:36:51.330Z,41.20
2022-12-20T09:37:51.343Z,41.20
2022-12-20T09:38:51.290Z,41.20
2022-12-20T09:39:51.274Z,42.90
2022-12-20T09:40:51.239Z,38.50
2022-12-20T09:41:51.268Z,42.10
2022-12-20T09:42:51.243Z,46.00
2022-12-20T09:43:51.273Z,41.70
2022-12-20T09:44:51.200Z,41.70
2022-12-20T09:45:51.221Z,57.80
2022-12-20T09:46:51.230Z,49.20
2022-12-20T09:47:51.195Z,50.90
2022-12-20T09:48:51.160Z,52.30
2022-12-20T09:49:51.155Z,52.50
2022-12-20T09:50:51.140Z,49.70
2022-12-20T09:51:51.157Z,51.30
2022-12-20T09:52:51.125Z,47.10
2022-12-20T09:53:51.107Z,49.30
2022-12-20T09:54:51.057Z,49.20
2022-12-20T09:55:51.088Z,50.10
2022-12-20T09:56:51.042Z,43.90
2022-12-20T09:57:51.094Z,43.60
2022-12-20T09:58:51.005Z,41.40
2022-12-20T09:59:51.027Z,35.10
2022-12-20T10:00:54.269Z,37.20
2022-12-20T10:01:51.061Z,31.90
2022-12-20T10:03:51.231Z,37.90
2022-12-20T10:04:51.151Z,39.50
2022-12-20T10:05:51.142Z,41.40
2022-12-20T10:06:50.916Z,41.90
2022-12-20T10:07:50.933Z,41.40
2022-12-20T10:08:50.889Z,37.70
2022-12-20T10:09:50.921Z,39.40
2022-12-20T10:10:50.890Z,47.00
2022-12-20T10:11:51.110Z,38.90
2022-12-20T10:12:50.854Z,41.20
2022-12-20T10:13:50.853Z,34.90
2022-12-20T10:14:50.827Z,35.40
2022-12-20T10:15:50.876Z,40.90
2022-12-20T10:16:50.804Z,60.50
2022-12-20T10:17:50.816Z,49.70
2022-12-20T10:18:50.769Z,50.00
2022-12-20T10:19:50.771Z,63.70
2022-12-20T10:20:50.762Z,61.70
2022-12-20T10:21:50.744Z,56.10
2022-12-20T10:22:50.761Z,36.20
2022-12-20T10:23:50.744Z,41.70
2022-12-20T10:24:50.731Z,43.10
2022-12-20T10:25:50.655Z,35.80
2022-12-20T10:26:50.716Z,27.10
2022-12-20T10:27:50.676Z,39.70
2022-12-20T10:28:54.223Z,29.30
2022-12-20T10:29:50.634Z,26.60
2022-12-20T10:30:50.693Z,31.60
2022-12-20T10:31:50.666Z,33.60
2022-12-20T10:32:50.606Z,26.40
2022-12-20T10:33:50.594Z,23.70
2022-12-20T10:34:50.606Z,24.70
2022-12-20T10:35:50.588Z,26.90
2022-12-20T10:36:50.554Z,30.60
2022-12-20T10:38:06.282Z,33.70
2022-12-20T10:38:50.533Z,33.50
2022-12-20T10:39:50.480Z,32.90
2022-12-20T10:41:50.472Z,36.60
2022-12-20T10:42:50.466Z,38.00
2022-12-20T10:43:50.492Z,30.10
2022-12-20T10:44:50.446Z,27.90
2022-12-20T10:45:50.440Z,26.10
2022-12-20T10:46:50.613Z,22.80
2022-12-20T10:47:50.402Z,23.70
2022-12-20T10:48:50.414Z,23.20
2022-12-20T10:49:50.406Z,22.10
2022-12-20T10:50:50.373Z,24.50
2022-12-20T10:51:50.332Z,31.20
2022-12-20T10:52:50.341Z,37.40
2022-12-20T10:53:50.318Z,33.20
2022-12-20T10:54:50.339Z,33.90
2022-12-20T10:55:50.307Z,33.30
2022-12-20T10:56:50.291Z,32.90
2022-12-20T10:57:50.243Z,27.00
2022-12-20T10:58:50.272Z,32.20
2022-12-20T10:59:50.244Z,27.90
2022-12-20T11:00:50.281Z,29.40
2022-12-20T11:01:50.338Z,32.30
2022-12-20T11:02:50.341Z,32.20
2022-12-20T11:03:50.378Z,30.90
2022-12-20T11:04:50.182Z,34.10
2022-12-20T11:05:50.144Z,34.30
2022-12-20T11:06:51.119Z,35.60
2022-12-20T11:08:08.549Z,34.20
2022-12-20T11:08:55.363Z,34.40
2022-12-20T11:09:50.104Z,35.30
2022-12-20T11:10:50.127Z,34.10
2022-12-20T11:11:50.080Z,28.80
2022-12-20T11:12:50.111Z,24.90
2022-12-20T11:13:50.050Z,27.70
2022-12-20T11:14:50.085Z,28.10
2022-12-20T11:15:50.468Z,27.80
2022-12-20T11:16:50.070Z,26.70
2022-12-20T11:17:49.990Z,27.10
2022-12-20T11:18:50.012Z,30.00
2022-12-20T11:19:49.979Z,26.10
2022-12-20T11:20:49.976Z,24.80
2022-12-20T11:21:49.958Z,25.50
2022-12-20T11:22:49.949Z,23.20
2022-12-20T11:23:49.898Z,24.30
2022-12-20T11:24:49.940Z,23.60
2022-12-20T11:25:49.905Z,23.00
2022-12-20T11:26:49.892Z,23.70
2022-12-20T11:27:49.868Z,21.80
2022-12-20T11:28:49.840Z,24.50
2022-12-20T11:29:49.847Z,24.60
2022-12-20T11:30:49.840Z,24.70
2022-12-20T11:31:49.925Z,23.40
2022-12-20T11:32:49.811Z,23.80
2022-12-20T11:33:49.845Z,22.20
2022-12-20T11:34:49.823Z,23.20
2022-12-20T11:35:49.787Z,26.50
2022-12-20T11:36:49.776Z,23.80
2022-12-20T11:37:49.740Z,24.40
2022-12-20T11:38:49.735Z,25.10
2022-12-20T11:39:49.720Z,24.00
2022-12-20T11:40:49.725Z,25.30
2022-12-20T11:41:49.696Z,25.80
2022-12-20T11:42:49.698Z,26.90
2022-12-20T11:44:23.291Z,26.60
2022-12-20T11:44:58.864Z,27.60
2022-12-20T11:45:49.683Z,26.80
2022-12-20T11:46:49.633Z,50.80
2022-12-20T11:47:49.682Z,47.20
2022-12-20T11:48:49.581Z,49.20
2022-12-20T11:49:49.637Z,23.20
2022-12-20T11:50:49.606Z,23.90
2022-12-20T11:51:49.566Z,23.90
2022-12-20T11:52:49.542Z,23.80
2022-12-20T11:53:49.545Z,24.00
2022-12-20T11:54:49.515Z,23.80
2022-12-20T11:55:49.527Z,23.50
2022-12-20T11:56:49.479Z,23.00
2022-12-20T11:58:16.951Z,23.10
2022-12-20T11:58:49.476Z,24.90
2022-12-20T11:59:49.511Z,24.40
2022-12-20T12:00:49.431Z,23.70
2022-12-20T12:01:49.598Z,23.80
2022-12-20T12:02:54.698Z,23.70
2022-12-20T12:03:49.419Z,22.60
2022-12-20T12:04:49.391Z,23.00
2022-12-20T12:05:49.443Z,22.20
2022-12-20T12:06:49.393Z,22.80
2022-12-20T12:07:49.361Z,22.30
2022-12-20T12:08:49.341Z,21.30
2022-12-20T12:09:49.351Z,23.30
2022-12-20T12:10:49.287Z,26.20
2022-12-20T12:12:06.793Z,27.10
2022-12-20T12:12:49.287Z,27.10
2022-12-20T12:13:49.276Z,28.30
2022-12-20T12:14:49.282Z,32.50
2022-12-20T12:15:49.282Z,46.80
2022-12-20T12:16:49.319Z,40.00
2022-12-20T12:17:49.235Z,39.10
2022-12-20T12:18:49.194Z,36.90
2022-12-20T12:19:49.205Z,37.00
2022-12-20T12:20:49.168Z,35.50
2022-12-20T12:21:49.198Z,32.80
2022-12-20T12:22:49.121Z,34.40
2022-12-20T12:23:49.142Z,33.70
2022-12-20T12:24:49.113Z,27.00
2022-12-20T12:25:49.140Z,25.20
2022-12-20T12:26:49.095Z,24.50
2022-12-20T12:27:49.126Z,22.70
2022-12-20T12:28:49.579Z,21.90
2022-12-20T12:29:49.098Z,21.50
2022-12-20T12:30:49.053Z,20.50
2022-12-20T12:31:49.189Z,22.10
2022-12-20T12:32:49.096Z,21.50
2022-12-20T12:33:49.051Z,21.60
2022-12-20T12:34:48.996Z,21.50
2022-12-20T12:35:48.988Z,20.00
2022-12-20T12:36:48.954Z,22.90
2022-12-20T12:37:48.972Z,22.30
2022-12-20T12:38:48.968Z,22.80
2022-12-20T12:39:48.959Z,21.80
2022-12-20T12:40:52.429Z,22.00
2022-12-20T12:41:48.915Z,23.10
2022-12-20T12:42:48.870Z,24.10
2022-12-20T12:43:48.927Z,26.30
2022-12-20T12:44:48.885Z,24.30
2022-12-20T12:45:48.979Z,22.60
2022-12-20T12:46:48.860Z,22.60
2022-12-20T12:47:48.847Z,23.60
2022-12-20T12:48:48.815Z,21.80
2022-12-20T12:49:48.831Z,23.00
2022-12-20T12:50:48.776Z,21.40
2022-12-20T12:51:48.822Z,22.70
2022-12-20T12:52:48.747Z,22.40
2022-12-20T12:53:48.769Z,21.90
2022-12-20T12:54:48.746Z,24.80